sensor_id;sensor_type;location;lat;lon;timestamp;P1;durP1;ratioP1;P2;durP2;ratioP2
59424;SDS011;45231;44.826;20.312;2023-01-28T00:00:31;86.68;;;38.70;;
59424;SDS011;45231;44.826;20.312;2023-01-28T00:02:57;84.22;;;35.58;;
59424;SDS011;45231;44.826;20.312;2023-01-28T00:05:23;82.30;;;37.35;;
59424;SDS011;45231;44.826;20.312;2023-01-28T00:07:49;85.78;;;38.38;;
59424;SDS011;45231;44.826;20.312;2023-01-28T00:10:16;88.05;;;39.47;;
59424;SDS011;45231;44.826;20.312;2023-01-28T00:12:42;93.03;;;39.88;;
59424;SDS011;45231;44.826;20.312;2023-01-28T00:15:08;87.93;;;39.15;;
59424;SDS011;45231;44.826;20.312;2023-01-28T00:17:34;87.23;;;39.07;;
59424;SDS011;45231;44.826;20.312;2023-01-28T00:20:01;84.68;;;39.00;;
59424;SDS011;45231;44.826;20.312;2023-01-28T00:22:28;80.68;;;36.75;;
59424;SDS011;45231;44.826;20.312;2023-01-28T00:24:54;82.45;;;36.33;;
59424;SDS011;45231;44.826;20.312;2023-01-28T00:27:20;83.47;;;37.38;;
59424;SDS011;45231;44.826;20.312;2023-01-28T00:29:46;76.20;;;35.10;;
59424;SDS011;45231;44.826;20.312;2023-01-28T00:32:12;77.35;;;36.50;;
59424;SDS011;45231;44.826;20.312;2023-01-28T00:34:42;74.30;;;33.00;;
59424;SDS011;45231;44.826;20.312;2023-01-28T00:37:08;68.72;;;32.80;;
59424;SDS011;45231;44.826;20.312;2023-01-28T00:39:34;76.25;;;33.97;;
59424;SDS011;45231;44.826;20.312;2023-01-28T00:42:00;68.50;;;32.58;;
59424;SDS011;45231;44.826;20.312;2023-01-28T00:44:26;74.75;;;34.78;;
59424;SDS011;45231;44.826;20.312;2023-01-28T00:46:52;78.25;;;35.38;;
59424;SDS011;45231;44.826;20.312;2023-01-28T00:49:22;69.15;;;32.65;;
59424;SDS011;45231;44.826;20.312;2023-01-28T00:51:50;69.05;;;32.60;;
59424;SDS011;45231;44.826;20.312;2023-01-28T00:54:16;70.40;;;33.70;;
59424;SDS011;45231;44.826;20.312;2023-01-28T00:56:42;63.28;;;31.88;;
59424;SDS011;45231;44.826;20.312;2023-01-28T00:59:08;68.82;;;33.35;;
59424;SDS011;45231;44.826;20.312;2023-01-28T01:01:35;72.13;;;34.67;;
59424;SDS011;45231;44.826;20.312;2023-01-28T01:04:01;68.65;;;32.90;;
59424;SDS011;45231;44.826;20.312;2023-01-28T01:06:35;78.30;;;33.53;;
59424;SDS011;45231;44.826;20.312;2023-01-28T01:09:02;72.63;;;33.97;;
59424;SDS011;45231;44.826;20.312;2023-01-28T01:11:28;69.53;;;32.10;;
59424;SDS011;45231;44.826;20.312;2023-01-28T01:13:58;75.82;;;34.10;;
59424;SDS011;45231;44.826;20.312;2023-01-28T01:16:28;73.15;;;34.25;;
59424;SDS011;45231;44.826;20.312;2023-01-28T01:18:56;74.60;;;34.08;;
59424;SDS011;45231;44.826;20.312;2023-01-28T01:23:49;66.82;;;30.05;;
59424;SDS011;45231;44.826;20.312;2023-01-28T01:26:15;78.13;;;34.97;;
59424;SDS011;45231;44.826;20.312;2023-01-28T01:28:42;71.85;;;32.10;;
59424;SDS011;45231;44.826;20.312;2023-01-28T01:31:10;74.82;;;33.38;;
59424;SDS011;45231;44.826;20.312;2023-01-28T01:33:37;74.75;;;33.05;;
59424;SDS011;45231;44.826;20.312;2023-01-28T01:36:04;82.37;;;36.17;;
59424;SDS011;45231;44.826;20.312;2023-01-28T01:38:30;78.47;;;34.75;;
59424;SDS011;45231;44.826;20.312;2023-01-28T01:40:57;79.78;;;34.33;;
59424;SDS011;45231;44.826;20.312;2023-01-28T01:43:24;79.95;;;33.92;;
59424;SDS011;45231;44.826;20.312;2023-01-28T01:45:59;79.30;;;33.60;;
59424;SDS011;45231;44.826;20.312;2023-01-28T01:48:30;77.50;;;34.92;;
59424;SDS011;45231;44.826;20.312;2023-01-28T01:50:58;80.75;;;34.67;;
59424;SDS011;45231;44.826;20.312;2023-01-28T01:53:25;84.63;;;35.22;;
59424;SDS011;45231;44.826;20.312;2023-01-28T01:55:52;80.15;;;34.75;;
59424;SDS011;45231;44.826;20.312;2023-01-28T01:58:21;82.38;;;34.33;;
59424;SDS011;45231;44.826;20.312;2023-01-28T02:00:48;84.32;;;34.60;;
59424;SDS011;45231;44.826;20.312;2023-01-28T02:03:14;85.93;;;35.00;;
59424;SDS011;45231;44.826;20.312;2023-01-28T02:05:42;80.05;;;34.03;;
59424;SDS011;45231;44.826;20.312;2023-01-28T02:08:08;86.03;;;34.22;;
59424;SDS011;45231;44.826;20.312;2023-01-28T02:10:52;74.72;;;32.05;;
59424;SDS011;45231;44.826;20.312;2023-01-28T02:13:19;76.10;;;32.90;;
59424;SDS011;45231;44.826;20.312;2023-01-28T02:15:46;76.78;;;33.35;;
59424;SDS011;45231;44.826;20.312;2023-01-28T02:18:13;78.68;;;33.70;;
59424;SDS011;45231;44.826;20.312;2023-01-28T02:31:11;81.07;;;33.33;;
59424;SDS011;45231;44.826;20.312;2023-01-28T02:33:41;81.43;;;34.58;;
59424;SDS011;45231;44.826;20.312;2023-01-28T02:36:17;76.03;;;32.25;;
59424;SDS011;45231;44.826;20.312;2023-01-28T02:38:47;78.70;;;33.53;;
59424;SDS011;45231;44.826;20.312;2023-01-28T02:41:19;78.55;;;33.40;;
59424;SDS011;45231;44.826;20.312;2023-01-28T02:43:46;77.65;;;33.05;;
59424;SDS011;45231;44.826;20.312;2023-01-28T02:49:10;73.10;;;31.30;;
59424;SDS011;45231;44.826;20.312;2023-01-28T02:54:11;83.00;;;34.22;;
59424;SDS011;45231;44.826;20.312;2023-01-28T02:56:44;74.70;;;31.50;;
59424;SDS011;45231;44.826;20.312;2023-01-28T02:59:12;85.47;;;33.10;;
59424;SDS011;45231;44.826;20.312;2023-01-28T03:07:06;86.93;;;32.60;;
59424;SDS011;45231;44.826;20.312;2023-01-28T03:09:33;82.82;;;32.85;;
59424;SDS011;45231;44.826;20.312;2023-01-28T03:14:50;73.30;;;31.40;;
59424;SDS011;45231;44.826;20.312;2023-01-28T03:17:46;71.60;;;29.98;;
59424;SDS011;45231;44.826;20.312;2023-01-28T03:20:34;73.70;;;31.05;;
59424;SDS011;45231;44.826;20.312;2023-01-28T03:23:22;80.82;;;31.48;;
59424;SDS011;45231;44.826;20.312;2023-01-28T03:26:10;76.38;;;31.55;;
59424;SDS011;45231;44.826;20.312;2023-01-28T03:28:56;73.15;;;31.23;;
59424;SDS011;45231;44.826;20.312;2023-01-28T03:31:45;77.32;;;31.42;;
59424;SDS011;45231;44.826;20.312;2023-01-28T03:34:30;86.43;;;32.90;;
59424;SDS011;45231;44.826;20.312;2023-01-28T03:37:15;79.65;;;30.83;;
59424;SDS011;45231;44.826;20.312;2023-01-28T03:39:41;77.18;;;32.53;;
59424;SDS011;45231;44.826;20.312;2023-01-28T03:42:08;70.53;;;29.92;;
59424;SDS011;45231;44.826;20.312;2023-01-28T03:44:37;74.13;;;29.85;;
59424;SDS011;45231;44.826;20.312;2023-01-28T03:47:19;77.20;;;30.48;;
59424;SDS011;45231;44.826;20.312;2023-01-28T03:49:47;82.15;;;31.08;;
59424;SDS011;45231;44.826;20.312;2023-01-28T03:54:39;71.65;;;29.45;;
59424;SDS011;45231;44.826;20.312;2023-01-28T03:57:06;74.87;;;30.20;;
59424;SDS011;45231;44.826;20.312;2023-01-28T03:59:33;75.70;;;30.45;;
59424;SDS011;45231;44.826;20.312;2023-01-28T04:01:59;72.57;;;31.05;;
59424;SDS011;45231;44.826;20.312;2023-01-28T04:04:27;77.68;;;31.00;;
59424;SDS011;45231;44.826;20.312;2023-01-28T04:06:55;77.20;;;29.83;;
59424;SDS011;45231;44.826;20.312;2023-01-28T04:09:21;60.33;;;23.42;;
59424;SDS011;45231;44.826;20.312;2023-01-28T04:11:47;81.78;;;31.20;;
59424;SDS011;45231;44.826;20.312;2023-01-28T04:14:22;79.88;;;31.70;;
59424;SDS011;45231;44.826;20.312;2023-01-28T04:16:49;75.47;;;30.80;;
59424;SDS011;45231;44.826;20.312;2023-01-28T04:19:16;75.13;;;32.00;;
59424;SDS011;45231;44.826;20.312;2023-01-28T04:21:42;79.10;;;30.58;;
59424;SDS011;45231;44.826;20.312;2023-01-28T04:24:08;78.75;;;31.38;;
59424;SDS011;45231;44.826;20.312;2023-01-28T04:26:34;85.53;;;31.50;;
59424;SDS011;45231;44.826;20.312;2023-01-28T04:29:00;73.07;;;31.20;;
59424;SDS011;45231;44.826;20.312;2023-01-28T04:31:26;74.13;;;30.20;;
59424;SDS011;45231;44.826;20.312;2023-01-28T04:33:52;73.18;;;30.85;;
59424;SDS011;45231;44.826;20.312;2023-01-28T04:36:18;73.55;;;31.08;;
59424;SDS011;45231;44.826;20.312;2023-01-28T04:38:44;74.50;;;31.95;;
59424;SDS011;45231;44.826;20.312;2023-01-28T04:41:10;79.97;;;30.85;;
59424;SDS011;45231;44.826;20.312;2023-01-28T04:43:36;71.47;;;31.48;;
59424;SDS011;45231;44.826;20.312;2023-01-28T04:46:03;74.65;;;31.75;;
59424;SDS011;45231;44.826;20.312;2023-01-28T04:50:56;75.22;;;30.20;;
59424;SDS011;45231;44.826;20.312;2023-01-28T04:53:22;77.83;;;32.13;;
59424;SDS011;45231;44.826;20.312;2023-01-28T04:55:51;75.90;;;31.00;;
59424;SDS011;45231;44.826;20.312;2023-01-28T04:58:17;69.10;;;30.48;;
59424;SDS011;45231;44.826;20.312;2023-01-28T05:00:43;69.28;;;29.70;;
59424;SDS011;45231;44.826;20.312;2023-01-28T05:03:09;69.72;;;30.85;;
59424;SDS011;45231;44.826;20.312;2023-01-28T05:05:35;70.32;;;29.38;;
59424;SDS011;45231;44.826;20.312;2023-01-28T05:08:01;76.00;;;31.23;;
59424;SDS011;45231;44.826;20.312;2023-01-28T05:10:27;74.25;;;29.48;;
59424;SDS011;45231;44.826;20.312;2023-01-28T05:12:53;70.68;;;31.52;;
59424;SDS011;45231;44.826;20.312;2023-01-28T05:15:19;69.65;;;31.30;;
59424;SDS011;45231;44.826;20.312;2023-01-28T05:17:46;70.40;;;31.00;;
59424;SDS011;45231;44.826;20.312;2023-01-28T05:20:12;72.82;;;31.45;;
59424;SDS011;45231;44.826;20.312;2023-01-28T05:22:39;72.65;;;31.95;;
59424;SDS011;45231;44.826;20.312;2023-01-28T05:25:05;75.50;;;31.20;;
59424;SDS011;45231;44.826;20.312;2023-01-28T05:27:32;71.15;;;31.27;;
59424;SDS011;45231;44.826;20.312;2023-01-28T05:29:58;74.87;;;30.60;;
59424;SDS011;45231;44.826;20.312;2023-01-28T05:32:25;76.28;;;30.65;;
59424;SDS011;45231;44.826;20.312;2023-01-28T05:34:51;81.72;;;33.33;;
59424;SDS011;45231;44.826;20.312;2023-01-28T05:37:17;77.95;;;33.30;;
59424;SDS011;45231;44.826;20.312;2023-01-28T05:39:43;72.75;;;32.72;;
59424;SDS011;45231;44.826;20.312;2023-01-28T05:42:09;79.60;;;31.88;;
59424;SDS011;45231;44.826;20.312;2023-01-28T05:44:35;79.28;;;33.47;;
59424;SDS011;45231;44.826;20.312;2023-01-28T05:47:02;76.40;;;33.53;;
59424;SDS011;45231;44.826;20.312;2023-01-28T05:49:37;80.90;;;34.22;;
59424;SDS011;45231;44.826;20.312;2023-01-28T05:52:03;79.57;;;32.15;;
59424;SDS011;45231;44.826;20.312;2023-01-28T05:54:29;83.43;;;32.40;;
59424;SDS011;45231;44.826;20.312;2023-01-28T05:56:55;76.00;;;31.77;;
59424;SDS011;45231;44.826;20.312;2023-01-28T05:59:21;74.32;;;32.63;;
59424;SDS011;45231;44.826;20.312;2023-01-28T06:01:47;83.43;;;33.17;;
59424;SDS011;45231;44.826;20.312;2023-01-28T06:04:13;75.13;;;32.70;;
59424;SDS011;45231;44.826;20.312;2023-01-28T06:06:42;78.82;;;31.58;;
59424;SDS011;45231;44.826;20.312;2023-01-28T06:09:08;73.72;;;33.28;;
59424;SDS011;45231;44.826;20.312;2023-01-28T06:11:34;81.57;;;33.80;;
59424;SDS011;45231;44.826;20.312;2023-01-28T06:14:00;80.90;;;32.67;;
59424;SDS011;45231;44.826;20.312;2023-01-28T06:16:26;77.18;;;33.00;;
59424;SDS011;45231;44.826;20.312;2023-01-28T06:19:00;84.15;;;34.17;;
59424;SDS011;45231;44.826;20.312;2023-01-28T06:21:27;71.90;;;31.73;;
59424;SDS011;45231;44.826;20.312;2023-01-28T06:23:53;78.47;;;33.38;;
59424;SDS011;45231;44.826;20.312;2023-01-28T06:26:19;79.63;;;33.55;;
59424;SDS011;45231;44.826;20.312;2023-01-28T06:28:46;74.80;;;31.60;;
59424;SDS011;45231;44.826;20.312;2023-01-28T06:31:13;73.43;;;31.55;;
59424;SDS011;45231;44.826;20.312;2023-01-28T06:33:39;79.53;;;34.53;;
59424;SDS011;45231;44.826;20.312;2023-01-28T06:36:05;71.68;;;32.53;;
59424;SDS011;45231;44.826;20.312;2023-01-28T06:38:31;76.22;;;32.30;;
59424;SDS011;45231;44.826;20.312;2023-01-28T06:40:58;71.60;;;32.80;;
59424;SDS011;45231;44.826;20.312;2023-01-28T06:43:24;76.88;;;33.20;;
59424;SDS011;45231;44.826;20.312;2023-01-28T06:45:55;79.75;;;33.30;;
59424;SDS011;45231;44.826;20.312;2023-01-28T06:48:22;76.45;;;33.45;;
59424;SDS011;45231;44.826;20.312;2023-01-28T06:50:50;75.10;;;31.00;;
59424;SDS011;45231;44.826;20.312;2023-01-28T06:53:16;75.70;;;32.57;;
59424;SDS011;45231;44.826;20.312;2023-01-28T06:55:42;71.65;;;31.73;;
59424;SDS011;45231;44.826;20.312;2023-01-28T06:58:08;72.72;;;31.25;;
59424;SDS011;45231;44.826;20.312;2023-01-28T07:00:35;70.28;;;31.10;;
59424;SDS011;45231;44.826;20.312;2023-01-28T07:03:01;70.63;;;31.02;;
59424;SDS011;45231;44.826;20.312;2023-01-28T07:05:27;70.37;;;30.13;;
59424;SDS011;45231;44.826;20.312;2023-01-28T07:07:53;67.82;;;30.25;;
59424;SDS011;45231;44.826;20.312;2023-01-28T07:10:19;65.07;;;30.92;;
59424;SDS011;45231;44.826;20.312;2023-01-28T07:12:46;61.90;;;29.00;;
59424;SDS011;45231;44.826;20.312;2023-01-28T07:15:12;64.15;;;30.20;;
59424;SDS011;45231;44.826;20.312;2023-01-28T07:17:42;62.90;;;30.30;;
59424;SDS011;45231;44.826;20.312;2023-01-28T07:20:12;61.05;;;29.50;;
59424;SDS011;45231;44.826;20.312;2023-01-28T07:22:40;65.43;;;31.08;;
59424;SDS011;45231;44.826;20.312;2023-01-28T07:25:06;60.88;;;28.85;;
59424;SDS011;45231;44.826;20.312;2023-01-28T07:27:32;61.45;;;28.83;;
59424;SDS011;45231;44.826;20.312;2023-01-28T07:29:58;58.47;;;27.48;;
59424;SDS011;45231;44.826;20.312;2023-01-28T07:32:24;61.30;;;30.27;;
59424;SDS011;45231;44.826;20.312;2023-01-28T07:34:51;57.63;;;29.90;;
59424;SDS011;45231;44.826;20.312;2023-01-28T07:37:17;62.25;;;29.00;;
59424;SDS011;45231;44.826;20.312;2023-01-28T07:39:44;62.42;;;29.67;;
59424;SDS011;45231;44.826;20.312;2023-01-28T07:42:10;60.30;;;28.73;;
59424;SDS011;45231;44.826;20.312;2023-01-28T07:44:36;66.70;;;29.42;;
59424;SDS011;45231;44.826;20.312;2023-01-28T07:47:02;63.65;;;30.10;;
59424;SDS011;45231;44.826;20.312;2023-01-28T07:49:29;70.05;;;31.02;;
59424;SDS011;45231;44.826;20.312;2023-01-28T07:51:56;62.40;;;30.25;;
59424;SDS011;45231;44.826;20.312;2023-01-28T07:54:22;57.00;;;28.00;;
59424;SDS011;45231;44.826;20.312;2023-01-28T07:56:48;61.25;;;28.83;;
59424;SDS011;45231;44.826;20.312;2023-01-28T07:59:14;67.40;;;30.55;;
59424;SDS011;45231;44.826;20.312;2023-01-28T08:01:40;60.42;;;29.42;;
59424;SDS011;45231;44.826;20.312;2023-01-28T08:04:06;63.10;;;31.23;;
59424;SDS011;45231;44.826;20.312;2023-01-28T08:06:40;60.00;;;29.63;;
59424;SDS011;45231;44.826;20.312;2023-01-28T08:09:06;59.17;;;29.52;;
59424;SDS011;45231;44.826;20.312;2023-01-28T08:11:33;69.22;;;32.25;;
59424;SDS011;45231;44.826;20.312;2023-01-28T08:14:00;64.28;;;31.90;;
59424;SDS011;45231;44.826;20.312;2023-01-28T08:16:26;65.20;;;32.17;;
59424;SDS011;45231;44.826;20.312;2023-01-28T08:21:20;67.35;;;32.38;;
59424;SDS011;45231;44.826;20.312;2023-01-28T08:23:47;73.32;;;35.05;;
59424;SDS011;45231;44.826;20.312;2023-01-28T08:26:13;73.88;;;35.33;;
59424;SDS011;45231;44.826;20.312;2023-01-28T08:28:39;69.30;;;34.90;;
59424;SDS011;45231;44.826;20.312;2023-01-28T08:31:05;72.32;;;36.35;;
59424;SDS011;45231;44.826;20.312;2023-01-28T08:33:32;68.72;;;34.70;;
59424;SDS011;45231;44.826;20.312;2023-01-28T08:36:01;70.30;;;34.53;;
59424;SDS011;45231;44.826;20.312;2023-01-28T08:38:27;67.60;;;33.75;;
59424;SDS011;45231;44.826;20.312;2023-01-28T08:40:54;76.93;;;35.35;;
59424;SDS011;45231;44.826;20.312;2023-01-28T08:43:20;70.20;;;32.92;;
59424;SDS011;45231;44.826;20.312;2023-01-28T08:45:46;75.27;;;35.47;;
59424;SDS011;45231;44.826;20.312;2023-01-28T08:48:14;80.47;;;37.05;;
59424;SDS011;45231;44.826;20.312;2023-01-28T08:50:48;79.03;;;36.70;;
59424;SDS011;45231;44.826;20.312;2023-01-28T08:53:17;74.78;;;35.63;;
59424;SDS011;45231;44.826;20.312;2023-01-28T08:55:44;75.57;;;36.47;;
59424;SDS011;45231;44.826;20.312;2023-01-28T08:58:14;75.07;;;35.33;;
59424;SDS011;45231;44.826;20.312;2023-01-28T09:00:40;69.47;;;35.65;;
59424;SDS011;45231;44.826;20.312;2023-01-28T09:03:07;84.68;;;39.97;;
59424;SDS011;45231;44.826;20.312;2023-01-28T09:05:34;85.82;;;39.17;;
59424;SDS011;45231;44.826;20.312;2023-01-28T09:08:12;82.68;;;37.40;;
59424;SDS011;45231;44.826;20.312;2023-01-28T09:10:38;71.55;;;35.10;;
59424;SDS011;45231;44.826;20.312;2023-01-28T09:13:10;73.78;;;34.70;;
59424;SDS011;45231;44.826;20.312;2023-01-28T09:15:36;75.22;;;36.00;;
59424;SDS011;45231;44.826;20.312;2023-01-28T09:18:03;75.33;;;34.67;;
59424;SDS011;45231;44.826;20.312;2023-01-28T09:20:29;69.35;;;34.83;;
59424;SDS011;45231;44.826;20.312;2023-01-28T09:22:57;69.93;;;35.15;;
59424;SDS011;45231;44.826;20.312;2023-01-28T09:25:23;76.60;;;35.87;;
59424;SDS011;45231;44.826;20.312;2023-01-28T09:27:49;78.30;;;37.13;;
59424;SDS011;45231;44.826;20.312;2023-01-28T09:30:15;75.57;;;36.65;;
59424;SDS011;45231;44.826;20.312;2023-01-28T09:32:41;79.33;;;38.40;;
59424;SDS011;45231;44.826;20.312;2023-01-28T09:35:07;84.87;;;38.87;;
59424;SDS011;45231;44.826;20.312;2023-01-28T09:37:35;75.03;;;36.08;;
59424;SDS011;45231;44.826;20.312;2023-01-28T09:40:01;77.57;;;37.45;;
59424;SDS011;45231;44.826;20.312;2023-01-28T09:47:43;79.60;;;36.80;;
59424;SDS011;45231;44.826;20.312;2023-01-28T09:50:13;79.25;;;36.92;;
59424;SDS011;45231;44.826;20.312;2023-01-28T09:52:40;79.82;;;37.88;;
59424;SDS011;45231;44.826;20.312;2023-01-28T09:57:52;84.00;;;38.95;;
59424;SDS011;45231;44.826;20.312;2023-01-28T10:00:23;80.28;;;37.80;;
59424;SDS011;45231;44.826;20.312;2023-01-28T10:05:25;79.32;;;39.80;;
59424;SDS011;45231;44.826;20.312;2023-01-28T10:10:46;84.65;;;38.90;;
59424;SDS011;45231;44.826;20.312;2023-01-28T10:16:27;85.90;;;38.67;;
59424;SDS011;45231;44.826;20.312;2023-01-28T10:21:16;88.15;;;39.10;;
59424;SDS011;45231;44.826;20.312;2023-01-28T10:26:26;99.53;;;43.08;;
59424;SDS011;45231;44.826;20.312;2023-01-28T10:28:55;111.82;;;43.58;;
59424;SDS011;45231;44.826;20.312;2023-01-28T10:31:22;105.57;;;46.22;;
59424;SDS011;45231;44.826;20.312;2023-01-28T10:33:52;107.05;;;43.53;;
59424;SDS011;45231;44.826;20.312;2023-01-28T10:36:18;110.60;;;46.35;;
59424;SDS011;45231;44.826;20.312;2023-01-28T10:38:44;100.30;;;44.57;;
59424;SDS011;45231;44.826;20.312;2023-01-28T10:41:11;91.30;;;41.95;;
59424;SDS011;45231;44.826;20.312;2023-01-28T10:43:41;94.13;;;41.45;;
59424;SDS011;45231;44.826;20.312;2023-01-28T10:51:36;87.50;;;40.10;;
59424;SDS011;45231;44.826;20.312;2023-01-28T10:54:03;87.88;;;39.88;;
59424;SDS011;45231;44.826;20.312;2023-01-28T10:56:47;93.85;;;39.78;;
59424;SDS011;45231;44.826;20.312;2023-01-28T11:04:44;77.35;;;36.65;;
59424;SDS011;45231;44.826;20.312;2023-01-28T11:07:15;80.60;;;39.30;;
59424;SDS011;45231;44.826;20.312;2023-01-28T11:09:46;83.20;;;38.65;;
59424;SDS011;45231;44.826;20.312;2023-01-28T11:14:42;92.53;;;40.90;;
59424;SDS011;45231;44.826;20.312;2023-01-28T11:17:11;89.80;;;40.42;;
59424;SDS011;45231;44.826;20.312;2023-01-28T11:19:41;85.35;;;39.05;;
59424;SDS011;45231;44.826;20.312;2023-01-28T11:22:13;82.47;;;38.97;;
59424;SDS011;45231;44.826;20.312;2023-01-28T11:24:42;80.10;;;38.65;;
59424;SDS011;45231;44.826;20.312;2023-01-28T11:27:14;85.03;;;39.53;;
59424;SDS011;45231;44.826;20.312;2023-01-28T11:29:40;81.25;;;39.50;;
59424;SDS011;45231;44.826;20.312;2023-01-28T11:32:18;86.20;;;39.33;;
59424;SDS011;45231;44.826;20.312;2023-01-28T11:34:49;79.90;;;38.72;;
59424;SDS011;45231;44.826;20.312;2023-01-28T11:37:15;86.88;;;39.72;;
59424;SDS011;45231;44.826;20.312;2023-01-28T11:39:42;84.60;;;39.70;;
59424;SDS011;45231;44.826;20.312;2023-01-28T11:42:14;83.10;;;39.95;;
59424;SDS011;45231;44.826;20.312;2023-01-28T11:44:41;85.53;;;39.70;;
59424;SDS011;45231;44.826;20.312;2023-01-28T11:57:30;82.10;;;41.08;;
59424;SDS011;45231;44.826;20.312;2023-01-28T12:10:08;91.20;;;43.28;;
59424;SDS011;45231;44.826;20.312;2023-01-28T12:26:12;102.35;;;46.83;;
59424;SDS011;45231;44.826;20.312;2023-01-28T12:34:03;100.10;;;44.90;;
59424;SDS011;45231;44.826;20.312;2023-01-28T12:41:46;98.57;;;43.50;;
59424;SDS011;45231;44.826;20.312;2023-01-28T12:44:24;97.18;;;44.40;;
59424;SDS011;45231;44.826;20.312;2023-01-28T12:46:56;95.80;;;43.72;;
59424;SDS011;45231;44.826;20.312;2023-01-28T12:56:54;95.65;;;45.00;;
59424;SDS011;45231;44.826;20.312;2023-01-28T12:59:26;95.72;;;43.67;;
59424;SDS011;45231;44.826;20.312;2023-01-28T13:09:29;93.47;;;43.22;;
59424;SDS011;45231;44.826;20.312;2023-01-28T13:11:56;98.40;;;42.92;;
59424;SDS011;45231;44.826;20.312;2023-01-28T13:14:26;94.15;;;42.53;;
59424;SDS011;45231;44.826;20.312;2023-01-28T13:16:53;92.55;;;43.60;;
59424;SDS011;45231;44.826;20.312;2023-01-28T13:21:46;93.68;;;42.55;;
59424;SDS011;45231;44.826;20.312;2023-01-28T13:26:50;96.05;;;43.28;;
59424;SDS011;45231;44.826;20.312;2023-01-28T13:29:18;96.00;;;44.43;;
59424;SDS011;45231;44.826;20.312;2023-01-28T13:31:45;100.45;;;45.08;;
59424;SDS011;45231;44.826;20.312;2023-01-28T13:36:54;100.25;;;46.22;;
59424;SDS011;45231;44.826;20.312;2023-01-28T13:39:21;93.55;;;45.13;;
59424;SDS011;45231;44.826;20.312;2023-01-28T13:41:49;102.43;;;46.78;;
59424;SDS011;45231;44.826;20.312;2023-01-28T13:44:20;98.80;;;45.15;;
59424;SDS011;45231;44.826;20.312;2023-01-28T13:46:52;94.88;;;45.45;;
59424;SDS011;45231;44.826;20.312;2023-01-28T13:51:49;92.13;;;43.58;;
59424;SDS011;45231;44.826;20.312;2023-01-28T13:54:18;98.50;;;44.17;;
59424;SDS011;45231;44.826;20.312;2023-01-28T13:59:25;103.00;;;46.38;;
59424;SDS011;45231;44.826;20.312;2023-01-28T14:05:02;101.35;;;44.47;;
59424;SDS011;45231;44.826;20.312;2023-01-28T14:15:02;107.63;;;51.10;;
59424;SDS011;45231;44.826;20.312;2023-01-28T14:17:53;102.18;;;47.60;;
59424;SDS011;45231;44.826;20.312;2023-01-28T14:20:35;93.60;;;46.05;;
59424;SDS011;45231;44.826;20.312;2023-01-28T14:23:05;96.72;;;45.88;;
59424;SDS011;45231;44.826;20.312;2023-01-28T14:27:57;100.07;;;44.35;;
59424;SDS011;45231;44.826;20.312;2023-01-28T14:32:59;100.57;;;46.10;;
59424;SDS011;45231;44.826;20.312;2023-01-28T14:35:29;108.03;;;48.10;;
59424;SDS011;45231;44.826;20.312;2023-01-28T14:37:55;110.10;;;48.03;;
59424;SDS011;45231;44.826;20.312;2023-01-28T14:42:49;105.80;;;47.92;;
59424;SDS011;45231;44.826;20.312;2023-01-28T14:48:35;115.53;;;49.45;;
59424;SDS011;45231;44.826;20.312;2023-01-28T14:55:42;112.13;;;51.13;;
59424;SDS011;45231;44.826;20.312;2023-01-28T14:58:14;110.00;;;49.70;;
59424;SDS011;45231;44.826;20.312;2023-01-28T15:00:50;111.32;;;51.10;;
59424;SDS011;45231;44.826;20.312;2023-01-28T15:03:17;116.72;;;51.00;;
59424;SDS011;45231;44.826;20.312;2023-01-28T15:05:44;109.88;;;50.28;;
59424;SDS011;45231;44.826;20.312;2023-01-28T15:08:20;121.30;;;52.17;;
59424;SDS011;45231;44.826;20.312;2023-01-28T15:10:46;111.97;;;50.60;;
59424;SDS011;45231;44.826;20.312;2023-01-28T15:15:58;111.93;;;49.65;;
59424;SDS011;45231;44.826;20.312;2023-01-28T15:18:28;107.65;;;49.75;;
59424;SDS011;45231;44.826;20.312;2023-01-28T15:20:54;105.05;;;47.47;;
59424;SDS011;45231;44.826;20.312;2023-01-28T15:23:28;109.97;;;49.85;;
59424;SDS011;45231;44.826;20.312;2023-01-28T15:25:56;105.72;;;48.28;;
59424;SDS011;45231;44.826;20.312;2023-01-28T15:28:29;117.80;;;52.30;;
59424;SDS011;45231;44.826;20.312;2023-01-28T15:30:56;113.28;;;48.85;;
59424;SDS011;45231;44.826;20.312;2023-01-28T15:33:24;116.90;;;50.15;;
59424;SDS011;45231;44.826;20.312;2023-01-28T15:35:54;105.70;;;49.38;;
59424;SDS011;45231;44.826;20.312;2023-01-28T15:38:20;114.18;;;51.67;;
59424;SDS011;45231;44.826;20.312;2023-01-28T15:40:48;116.30;;;50.50;;
59424;SDS011;45231;44.826;20.312;2023-01-28T15:43:19;124.50;;;53.17;;
59424;SDS011;45231;44.826;20.312;2023-01-28T15:45:49;107.03;;;48.03;;
59424;SDS011;45231;44.826;20.312;2023-01-28T15:48:19;116.80;;;49.58;;
59424;SDS011;45231;44.826;20.312;2023-01-28T15:50:45;110.85;;;50.20;;
59424;SDS011;45231;44.826;20.312;2023-01-28T15:53:12;112.13;;;49.77;;
59424;SDS011;45231;44.826;20.312;2023-01-28T15:55:39;122.57;;;52.40;;
59424;SDS011;45231;44.826;20.312;2023-01-28T15:58:17;116.82;;;51.33;;
59424;SDS011;45231;44.826;20.312;2023-01-28T16:00:44;118.65;;;50.00;;
59424;SDS011;45231;44.826;20.312;2023-01-28T16:03:16;113.07;;;49.25;;
59424;SDS011;45231;44.826;20.312;2023-01-28T16:05:51;120.45;;;50.88;;
59424;SDS011;45231;44.826;20.312;2023-01-28T16:08:22;117.28;;;51.80;;
59424;SDS011;45231;44.826;20.312;2023-01-28T16:10:53;117.82;;;50.90;;
59424;SDS011;45231;44.826;20.312;2023-01-28T16:13:21;114.45;;;49.08;;
59424;SDS011;45231;44.826;20.312;2023-01-28T16:21:19;119.63;;;52.08;;
59424;SDS011;45231;44.826;20.312;2023-01-28T16:23:50;107.07;;;48.15;;
59424;SDS011;45231;44.826;20.312;2023-01-28T16:26:23;104.82;;;46.85;;
59424;SDS011;45231;44.826;20.312;2023-01-28T16:28:49;108.63;;;48.08;;
59424;SDS011;45231;44.826;20.312;2023-01-28T16:31:15;104.57;;;46.58;;
59424;SDS011;45231;44.826;20.312;2023-01-28T16:33:42;107.70;;;48.63;;
59424;SDS011;45231;44.826;20.312;2023-01-28T16:36:11;102.93;;;49.85;;
59424;SDS011;45231;44.826;20.312;2023-01-28T16:38:38;104.65;;;46.42;;
59424;SDS011;45231;44.826;20.312;2023-01-28T16:41:10;112.00;;;47.60;;
59424;SDS011;45231;44.826;20.312;2023-01-28T16:43:36;104.63;;;47.40;;
59424;SDS011;45231;44.826;20.312;2023-01-28T16:46:02;104.63;;;47.22;;
59424;SDS011;45231;44.826;20.312;2023-01-28T16:48:29;103.35;;;46.38;;
59424;SDS011;45231;44.826;20.312;2023-01-28T16:50:55;108.47;;;47.58;;
59424;SDS011;45231;44.826;20.312;2023-01-28T16:53:25;120.20;;;51.13;;
59424;SDS011;45231;44.826;20.312;2023-01-28T16:55:53;110.78;;;48.45;;
59424;SDS011;45231;44.826;20.312;2023-01-28T16:58:21;111.63;;;49.42;;
59424;SDS011;45231;44.826;20.312;2023-01-28T17:00:48;105.75;;;47.72;;
59424;SDS011;45231;44.826;20.312;2023-01-28T17:03:14;113.33;;;50.07;;
59424;SDS011;45231;44.826;20.312;2023-01-28T17:05:40;104.78;;;46.90;;
59424;SDS011;45231;44.826;20.312;2023-01-28T17:08:06;97.00;;;47.92;;